| time (UTC) | temp F | wind direction | speed MPH | gust MPH | rain 1hr in | rain 24hr in | rain mn in | humidity % | barometer mb |
| 20260905184004 | 75 | 213 | 0.0 | 0.0 | 0.05 | 0.43 | 0.40 | 95 | 1011.3 |
| 20260905183504 | 74 | 213 | 0.0 | 0.0 | 0.03 | 0.41 | 0.38 | 95 | 1011.4 |
| 20260905182508 | 74 | 210 | 0.0 | 2.0 | 0.00 | 0.38 | 0.35 | 95 | 1011.4 |
| 20260905182009 | 74 | 205 | 1.0 | 2.0 | 0.00 | 0.38 | 0.35 | 95 | 1011.1 |
| 20260905181508 | 74 | 137 | 1.0 | 2.0 | 0.00 | 0.38 | 0.35 | 95 | 1011.2 |
| 20260905181009 | 74 | 130 | 0.0 | 5.0 | 0.00 | 0.38 | 0.35 | 95 | 1011.2 |
| 20260905180510 | 74 | 130 | 2.0 | 5.0 | 0.00 | 0.38 | 0.35 | 95 | 1011.4 |
| 20260905180008 | 74 | 117 | 1.0 | 6.0 | 0.00 | 0.38 | 0.35 | 95 | 1011.6 |
| 20260905175508 | 74 | 126 | 2.0 | 6.0 | 0.00 | 0.38 | 0.35 | 95 | 1011.5 |
| 20260905175008 | 75 | 91 | 2.0 | 3.0 | 0.01 | 0.38 | 0.35 | 95 | 1011.6 |
| 20260905174508 | 74 | 141 | 1.0 | 3.0 | 0.01 | 0.38 | 0.35 | 95 | 1011.9 |
| 20260905174008 | 74 | 121 | 1.0 | 3.0 | 0.04 | 0.38 | 0.35 | 95 | 1011.9 |
| 20260905173508 | 74 | 82 | 1.0 | 3.0 | 0.11 | 0.38 | 0.35 | 95 | 1012.0 |
| 20260905173009 | 73 | 80 | 0.0 | 0.0 | 0.13 | 0.38 | 0.35 | 95 | 1012.0 |
| 20260905172508 | 73 | 80 | 0.0 | 0.0 | 0.16 | 0.38 | 0.35 | 95 | 1011.8 |
| 20260905172008 | 73 | 80 | 0.0 | 2.0 | 0.24 | 0.38 | 0.35 | 95 | 1011.7 |
| 20260905171508 | 72 | 136 | 0.0 | 5.0 | 0.31 | 0.38 | 0.35 | 94 | 1011.9 |
| 20260905171008 | 72 | 130 | 2.0 | 5.0 | 0.35 | 0.38 | 0.35 | 94 | 1011.9 |
| 20260905170508 | 73 | 26 | 0.0 | 7.0 | 0.35 | 0.38 | 0.35 | 94 | 1012.5 |
| 20260905170008 | 73 | 14 | 3.0 | 7.0 | 0.35 | 0.38 | 0.35 | 94 | 1012.7 |
| 20260905165508 | 73 | 49 | 3.0 | 13.0 | 0.35 | 0.38 | 0.35 | 93 | 1012.9 |
| 20260905165009 | 74 | 6 | 3.0 | 13.0 | 0.34 | 0.37 | 0.34 | 93 | 1013.4 |
| 20260905164508 | 75 | 1 | 6.0 | 13.0 | 0.34 | 0.37 | 0.34 | 93 | 1013.5 |
| 20260905164009 | 76 | 346 | 2.0 | 5.0 | 0.31 | 0.34 | 0.31 | 93 | 1013.5 |
| 20260905163508 | 76 | 0 | 1.0 | 3.0 | 0.24 | 0.27 | 0.24 | 92 | 1013.3 |
| 20260905163008 | 77 | 325 | 1.0 | 3.0 | 0.22 | 0.25 | 0.22 | 91 | 1013.3 |
| 20260905162508 | 78 | 213 | 0.0 | 3.0 | 0.19 | 0.22 | 0.19 | 90 | 1013.1 |
| 20260905162008 | 79 | 36 | 2.0 | 3.0 | 0.11 | 0.14 | 0.11 | 89 | 1013.3 |
| 20260905161508 | 80 | 260 | 2.0 | 3.0 | 0.04 | 0.07 | 0.04 | 87 | 1013.1 |
| 20260905161008 | 80 | 268 | 1.0 | 3.0 | 0.00 | 0.03 | 0.00 | 85 | 1012.8 |
| 20260905160508 | 81 | 72 | 0.0 | 3.0 | 0.00 | 0.03 | 0.00 | 83 | 1012.5 |
| 20260905160008 | 81 | 336 | 1.0 | 6.0 | 0.00 | 0.03 | 0.00 | 81 | 1012.5 |
| 20260905155511 | 81 | 350 | 1.0 | 8.0 | 0.00 | 0.03 | 0.00 | 82 | 1012.1 |
| 20260905155008 | 81 | 27 | 2.0 | 8.0 | 0.00 | 0.03 | 0.00 | 81 | 1011.8 |
| 20260905154508 | 82 | 328 | 3.0 | 5.0 | 0.00 | 0.03 | 0.00 | 82 | 1011.7 |
| 20260905154008 | 82 | 35 | 3.0 | 7.0 | 0.00 | 0.03 | 0.00 | 81 | 1011.8 |
| 20260905153508 | 82 | 11 | 2.0 | 7.0 | 0.00 | 0.03 | 0.00 | 80 | 1011.8 |
| 20260905153008 | 82 | 6 | 2.0 | 8.0 | 0.00 | 0.03 | 0.00 | 79 | 1011.8 |
| 20260905152507 | 82 | 338 | 3.0 | 9.0 | 0.00 | 0.03 | 0.00 | 79 | 1011.9 |
| 20260905152008 | 82 | 1 | 3.0 | 9.0 | 0.00 | 0.03 | 0.00 | 78 | 1012.0 |
| 20260905151508 | 82 | 350 | 2.0 | 7.0 | 0.00 | 0.03 | 0.00 | 78 | 1012.2 |
| 20260905151008 | 82 | 19 | 3.0 | 7.0 | 0.00 | 0.03 | 0.00 | 78 | 1012.2 |
| 20260905150508 | 82 | 353 | 2.0 | 7.0 | 0.00 | 0.03 | 0.00 | 78 | 1012.1 |
| 20260905150008 | 83 | 0 | 3.0 | 7.0 | 0.00 | 0.03 | 0.00 | 79 | 1012.2 |
| 20260905145508 | 83 | 5 | 2.0 | 7.0 | 0.00 | 0.03 | 0.00 | 79 | 1012.1 |
| 20260905145009 | 83 | 20 | 2.0 | 8.0 | 0.00 | 0.03 | 0.00 | 79 | 1012.0 |
| 20260905144508 | 83 | 5 | 3.0 | 8.0 | 0.00 | 0.03 | 0.00 | 79 | 1012.0 |
| 20260905144008 | 83 | 16 | 2.0 | 10.0 | 0.00 | 0.03 | 0.00 | 80 | 1012.0 |
| 20260905143509 | 82 | 114 | 3.0 | 10.0 | 0.00 | 0.03 | 0.00 | 79 | 1011.9 |
| 20260905143008 | 82 | 35 | 4.0 | 10.0 | 0.00 | 0.03 | 0.00 | 80 | 1012.0 |
| 20260905142507 | 82 | 355 | 2.0 | 9.0 | 0.00 | 0.03 | 0.00 | 80 | 1012.0 |
| 20260905142008 | 82 | 16 | 3.0 | 9.0 | 0.00 | 0.03 | 0.00 | 80 | 1012.0 |
| 20260905141508 | 81 | 18 | 3.0 | 7.0 | 0.00 | 0.03 | 0.00 | 81 | 1011.9 |
| 20260905141008 | 81 | 350 | 3.0 | 8.0 | 0.00 | 0.03 | 0.00 | 82 | 1011.9 |
| 20260905140508 | 81 | 14 | 2.0 | 8.0 | 0.00 | 0.03 | 0.00 | 81 | 1011.7 |
| 20260905140008 | 81 | 1 | 2.0 | 9.0 | 0.00 | 0.03 | 0.00 | 82 | 1011.5 |
| 20260905135507 | 81 | 21 | 4.0 | 9.0 | 0.00 | 0.03 | 0.00 | 82 | 1011.7 |
| 20260905135008 | 80 | 358 | 2.0 | 8.0 | 0.00 | 0.03 | 0.00 | 83 | 1011.6 |
| 20260905134508 | 80 | 38 | 2.0 | 5.0 | 0.00 | 0.03 | 0.00 | 84 | 1011.6 |
| 20260905134009 | 80 | 41 | 1.0 | 5.0 | 0.00 | 0.03 | 0.00 | 85 | 1011.6 |
| 20260905133507 | 79 | 355 | 1.0 | 3.0 | 0.00 | 0.03 | 0.00 | 85 | 1011.6 |
| 20260905133008 | 79 | 56 | 0.0 | 3.0 | 0.00 | 0.03 | 0.00 | 87 | 1011.6 |
| 20260905132508 | 78 | 56 | 0.0 | 5.0 | 0.00 | 0.03 | 0.00 | 90 | 1011.4 |
| 20260905132008 | 78 | 46 | 2.0 | 5.0 | 0.00 | 0.03 | 0.00 | 91 | 1011.6 |
| 20260905131508 | 77 | 41 | 2.0 | 5.0 | 0.00 | 0.03 | 0.00 | 93 | 1011.6 |
| 20260905131008 | 77 | 28 | 0.0 | 2.0 | 0.00 | 0.03 | 0.00 | 95 | 1011.5 |
| 20260905130508 | 76 | 221 | 0.0 | 0.0 | 0.00 | 0.03 | 0.00 | 95 | 1011.3 |
| 20260905130008 | 76 | 221 | 0.0 | 0.0 | 0.00 | 0.03 | 0.00 | 95 | 1011.2 |
| 20260905125508 | 76 | 221 | 0.0 | 0.0 | 0.00 | 0.03 | 0.00 | 95 | 1011.2 |
| 20260905125008 | 75 | 221 | 0.0 | 0.0 | 0.00 | 0.03 | 0.00 | 95 | 1011.4 |
| 20260905124508 | 75 | 221 | 0.0 | 0.0 | 0.00 | 0.03 | 0.00 | 95 | 1011.4 |
| 20260905124008 | 74 | 221 | 0.0 | 0.0 | 0.00 | 0.03 | 0.00 | 95 | 1011.4 |
| 20260905123508 | 74 | 221 | 0.0 | 0.0 | 0.00 | 0.03 | 0.00 | 95 | 1011.5 |
| 20260905123008 | 74 | 221 | 0.0 | 0.0 | 0.00 | 0.03 | 0.00 | 95 | 1011.5 |
| 20260905122508 | 73 | 221 | 0.0 | 0.0 | 0.00 | 0.03 | 0.00 | 95 | 1011.6 |
| 20260905122008 | 73 | 221 | 0.0 | 0.0 | 0.00 | 0.03 | 0.00 | 95 | 1011.6 |
| 20260905121508 | 73 | 221 | 0.0 | 0.0 | 0.00 | 0.03 | 0.00 | 95 | 1011.6 |
| 20260905121008 | 73 | 221 | 0.0 | 0.0 | 0.00 | 0.03 | 0.00 | 95 | 1011.5 |
| 20260905120507 | 72 | 221 | 0.0 | 0.0 | 0.00 | 0.03 | 0.00 | 95 | 1011.6 |
| 20260905120007 | 72 | 221 | 0.0 | 0.0 | 0.00 | 0.03 | 0.00 | 95 | 1011.5 |
| 20260905115507 | 72 | 221 | 0.0 | 0.0 | 0.00 | 0.03 | 0.00 | 95 | 1011.4 |
| 20260905115008 | 72 | 221 | 0.0 | 0.0 | 0.00 | 0.03 | 0.00 | 95 | 1011.5 |
| 20260905114507 | 71 | 221 | 0.0 | 0.0 | 0.00 | 0.03 | 0.00 | 95 | 1011.3 |
| 20260905114007 | 71 | 221 | 0.0 | 0.0 | 0.00 | 0.03 | 0.00 | 95 | 1011.3 |
| 20260905113507 | 71 | 221 | 0.0 | 0.0 | 0.00 | 0.03 | 0.00 | 95 | 1011.3 |
| 20260905113007 | 71 | 221 | 0.0 | 0.0 | 0.00 | 0.03 | 0.00 | 95 | 1011.3 |
| 20260905112508 | 71 | 221 | 0.0 | 0.0 | 0.00 | 0.03 | 0.00 | 95 | 1011.3 |
| 20260905112007 | 71 | 221 | 0.0 | 0.0 | 0.00 | 0.03 | 0.00 | 95 | 1011.2 |
| 20260905111507 | 71 | 221 | 0.0 | 0.0 | 0.00 | 0.03 | 0.00 | 95 | 1011.2 |
| 20260905111008 | 71 | 221 | 0.0 | 0.0 | 0.00 | 0.03 | 0.00 | 95 | 1011.2 |
| 20260905110508 | 71 | 221 | 0.0 | 0.0 | 0.00 | 0.03 | 0.00 | 95 | 1011.1 |
| 20260905110008 | 71 | 221 | 0.0 | 0.0 | 0.00 | 0.03 | 0.00 | 95 | 1011.2 |
| 20260905105507 | 71 | 221 | 0.0 | 0.0 | 0.00 | 0.03 | 0.00 | 95 | 1011.2 |
| 20260905105008 | 71 | 221 | 0.0 | 0.0 | 0.00 | 0.03 | 0.00 | 95 | 1011.1 |
| 20260905104507 | 71 | 221 | 0.0 | 0.0 | 0.00 | 0.03 | 0.00 | 95 | 1011.0 |
| 20260905104008 | 71 | 221 | 0.0 | 0.0 | 0.00 | 0.03 | 0.00 | 95 | 1011.0 |
| 20260905103507 | 71 | 221 | 0.0 | 0.0 | 0.00 | 0.03 | 0.00 | 95 | 1011.0 |
| 20260905103008 | 71 | 221 | 0.0 | 0.0 | 0.00 | 0.03 | 0.00 | 95 | 1010.9 |
| 20260905102509 | 71 | 221 | 0.0 | 0.0 | 0.00 | 0.03 | 0.00 | 95 | 1010.9 |
| 20260905102007 | 71 | 221 | 0.0 | 0.0 | 0.00 | 0.03 | 0.00 | 95 | 1010.9 |
| 20260905101508 | 71 | 221 | 0.0 | 0.0 | 0.00 | 0.03 | 0.00 | 95 | 1010.8 |
| 20260905101007 | 71 | 221 | 0.0 | 0.0 | 0.00 | 0.03 | 0.00 | 95 | 1010.6 |
| 20260905100508 | 71 | 221 | 0.0 | 0.0 | 0.00 | 0.03 | 0.00 | 95 | 1010.7 |
| 20260905100007 | 71 | 221 | 0.0 | 0.0 | 0.00 | 0.03 | 0.00 | 95 | 1010.7 |
| 20260905095507 | 71 | 221 | 0.0 | 0.0 | 0.00 | 0.03 | 0.00 | 95 | 1010.6 |
| 20260905095008 | 71 | 221 | 0.0 | 0.0 | 0.00 | 0.03 | 0.00 | 95 | 1010.7 |
| 20260905094508 | 71 | 221 | 0.0 | 0.0 | 0.00 | 0.03 | 0.00 | 95 | 1010.7 |
| 20260905094010 | 71 | 221 | 0.0 | 0.0 | 0.00 | 0.03 | 0.00 | 95 | 1010.5 |
| 20260905093507 | 71 | 221 | 0.0 | 0.0 | 0.00 | 0.03 | 0.00 | 95 | 1010.5 |
| 20260905093007 | 71 | 221 | 0.0 | 0.0 | 0.00 | 0.03 | 0.00 | 95 | 1010.5 |
| 20260905092508 | 71 | 221 | 0.0 | 0.0 | 0.00 | 0.03 | 0.00 | 95 | 1010.5 |
| 20260905092008 | 71 | 221 | 0.0 | 0.0 | 0.00 | 0.03 | 0.00 | 95 | 1010.5 |
| 20260905091508 | 71 | 221 | 0.0 | 0.0 | 0.00 | 0.03 | 0.00 | 95 | 1010.3 |
| 20260905091008 | 71 | 221 | 0.0 | 0.0 | 0.00 | 0.03 | 0.00 | 95 | 1010.2 |
| 20260905090508 | 71 | 221 | 0.0 | 0.0 | 0.00 | 0.03 | 0.00 | 95 | 1010.3 |
| 20260905090008 | 71 | 221 | 0.0 | 0.0 | 0.00 | 0.03 | 0.00 | 95 | 1010.3 |
| 20260905085507 | 71 | 221 | 0.0 | 0.0 | 0.00 | 0.03 | 0.00 | 95 | 1010.3 |
| 20260905085007 | 71 | 221 | 0.0 | 0.0 | 0.00 | 0.03 | 0.00 | 95 | 1010.3 |
| 20260905084507 | 71 | 221 | 0.0 | 0.0 | 0.00 | 0.03 | 0.00 | 95 | 1010.4 |
| 20260905084007 | 71 | 221 | 0.0 | 0.0 | 0.00 | 0.03 | 0.00 | 95 | 1010.4 |
| 20260905083507 | 71 | 221 | 0.0 | 0.0 | 0.00 | 0.03 | 0.00 | 95 | 1010.4 |
| 20260905083008 | 71 | 221 | 0.0 | 0.0 | 0.00 | 0.03 | 0.00 | 95 | 1010.5 |
| 20260905082507 | 71 | 221 | 0.0 | 0.0 | 0.00 | 0.03 | 0.00 | 95 | 1010.5 |
| 20260905082008 | 71 | 221 | 0.0 | 0.0 | 0.00 | 0.03 | 0.00 | 95 | 1010.5 |
| 20260905081507 | 71 | 221 | 0.0 | 0.0 | 0.00 | 0.03 | 0.00 | 95 | 1010.5 |
| 20260905081007 | 71 | 221 | 0.0 | 0.0 | 0.00 | 0.03 | 0.00 | 95 | 1010.6 |
| 20260905080507 | 71 | 221 | 0.0 | 0.0 | 0.00 | 0.03 | 0.00 | 95 | 1010.8 |
| 20260905080007 | 72 | 221 | 0.0 | 0.0 | 0.00 | 0.03 | 0.00 | 95 | 1010.8 |
| 20260905075507 | 72 | 221 | 0.0 | 0.0 | 0.00 | 0.03 | 0.00 | 95 | 1010.7 |
| 20260905075007 | 72 | 221 | 0.0 | 0.0 | 0.00 | 0.03 | 0.00 | 95 | 1010.7 |
| 20260905074507 | 72 | 221 | 0.0 | 0.0 | 0.00 | 0.03 | 0.00 | 95 | 1010.9 |
| 20260905074007 | 72 | 221 | 0.0 | 0.0 | 0.00 | 0.03 | 0.00 | 95 | 1010.9 |
| 20260905073507 | 72 | 221 | 0.0 | 0.0 | 0.00 | 0.03 | 0.00 | 95 | 1010.9 |
| 20260905073007 | 72 | 221 | 0.0 | 0.0 | 0.00 | 0.03 | 0.00 | 95 | 1010.9 |
| 20260905072507 | 72 | 221 | 0.0 | 0.0 | 0.00 | 0.03 | 0.00 | 95 | 1011.0 |
| 20260905072007 | 72 | 221 | 0.0 | 0.0 | 0.00 | 0.03 | 0.00 | 95 | 1011.1 |
| 20260905071508 | 72 | 221 | 0.0 | 0.0 | 0.00 | 0.03 | 0.00 | 95 | 1011.1 |
| 20260905071007 | 72 | 221 | 0.0 | 0.0 | 0.00 | 0.03 | 0.00 | 95 | 1011.2 |
| 20260905070506 | 72 | 221 | 0.0 | 0.0 | 0.00 | 0.03 | 0.00 | 95 | 1011.2 |
| 20260905070007 | 72 | 221 | 0.0 | 0.0 | 0.00 | 0.03 | 0.00 | 95 | 1011.2 |
| 20260905065507 | 72 | 221 | 0.0 | 0.0 | 0.00 | 0.03 | 0.00 | 95 | 1011.2 |
| 20260905065007 | 72 | 221 | 0.0 | 0.0 | 0.00 | 0.03 | 0.00 | 95 | 1011.4 |
| 20260905064507 | 72 | 221 | 0.0 | 0.0 | 0.00 | 0.03 | 0.00 | 95 | 1011.5 |
| 20260905064008 | 72 | 221 | 0.0 | 0.0 | 0.00 | 0.03 | 0.00 | 95 | 1011.4 |
| 20260905063507 | 72 | 221 | 0.0 | 0.0 | 0.00 | 0.03 | 0.00 | 95 | 1011.3 |
| 20260905063007 | 72 | 221 | 0.0 | 0.0 | 0.00 | 0.03 | 0.00 | 95 | 1011.4 |
| 20260905062507 | 72 | 221 | 0.0 | 0.0 | 0.00 | 0.03 | 0.00 | 95 | 1011.5 |
| 20260905062008 | 72 | 221 | 0.0 | 0.0 | 0.00 | 0.03 | 0.00 | 95 | 1011.5 |
| 20260905061507 | 72 | 221 | 0.0 | 0.0 | 0.00 | 0.03 | 0.00 | 95 | 1011.5 |
| 20260905061007 | 72 | 221 | 0.0 | 1.0 | 0.00 | 0.03 | 0.00 | 95 | 1011.6 |
| 20260905060508 | 72 | 221 | 0.0 | 1.0 | 0.00 | 0.03 | 0.00 | 95 | 1011.8 |
| 20260905060007 | 72 | 221 | 0.0 | 1.0 | 0.00 | 0.03 | 0.00 | 95 | 1011.9 |
| 20260905055508 | 72 | 221 | 0.0 | 2.0 | 0.00 | 0.03 | 0.00 | 95 | 1012.0 |
| 20260905055008 | 72 | 221 | 0.0 | 2.0 | 0.00 | 0.03 | 0.00 | 95 | 1012.1 |
| 20260905054507 | 72 | 221 | 0.0 | 0.0 | 0.00 | 0.03 | 0.00 | 95 | 1012.1 |
| 20260905054008 | 72 | 221 | 0.0 | 0.0 | 0.00 | 0.03 | 0.00 | 95 | 1012.1 |
| 20260905053507 | 72 | 221 | 0.0 | 0.0 | 0.00 | 0.03 | 0.00 | 95 | 1012.2 |
| 20260905053007 | 72 | 221 | 0.0 | 0.0 | 0.00 | 0.03 | 0.00 | 95 | 1012.3 |
| 20260905052507 | 72 | 221 | 0.0 | 0.0 | 0.00 | 0.03 | 0.00 | 95 | 1012.4 |
| 20260905052007 | 72 | 221 | 0.0 | 0.0 | 0.00 | 0.03 | 0.00 | 95 | 1012.6 |
| 20260905051507 | 72 | 221 | 0.0 | 0.0 | 0.00 | 0.03 | 0.00 | 95 | 1012.6 |
| 20260905051007 | 72 | 221 | 0.0 | 1.0 | 0.00 | 0.03 | 0.00 | 95 | 1012.8 |
| 20260905050507 | 72 | 221 | 0.0 | 1.0 | 0.00 | 0.03 | 0.00 | 95 | 1012.9 |
| 20260905050007 | 72 | 221 | 0.0 | 0.0 | 0.00 | 0.03 | 0.00 | 95 | 1012.9 |
| 20260905045507 | 73 | 221 | 0.0 | 0.0 | 0.00 | 0.03 | 0.00 | 95 | 1013.0 |
| 20260905045007 | 73 | 221 | 0.0 | 0.0 | 0.00 | 0.03 | 0.00 | 95 | 1013.0 |
| 20260905044507 | 73 | 221 | 0.0 | 0.0 | 0.00 | 0.03 | 0.00 | 95 | 1013.1 |
| 20260905044007 | 73 | 221 | 0.0 | 1.0 | 0.00 | 0.03 | 0.00 | 95 | 1013.1 |
| 20260905043507 | 73 | 221 | 0.0 | 3.0 | 0.00 | 0.03 | 0.00 | 95 | 1013.2 |
| 20260905043007 | 73 | 221 | 1.0 | 3.0 | 0.00 | 0.03 | 0.00 | 95 | 1013.3 |
| 20260905042507 | 73 | 221 | 1.0 | 3.0 | 0.00 | 0.03 | 0.00 | 95 | 1013.2 |
| 20260905042008 | 73 | 221 | 0.0 | 1.0 | 0.00 | 0.03 | 0.00 | 95 | 1013.2 |
| 20260905041509 | 73 | 221 | 0.0 | 1.0 | 0.00 | 0.03 | 0.00 | 95 | 1013.3 |
| 20260905041007 | 73 | 221 | 0.0 | 3.0 | 0.00 | 0.03 | 0.00 | 95 | 1013.3 |
| 20260905040507 | 73 | 221 | 0.0 | 3.0 | 0.00 | 0.03 | 0.00 | 95 | 1013.3 |
| 20260905040007 | 73 | 216 | 0.0 | 0.0 | 0.00 | 0.03 | 0.00 | 95 | 1013.3 |
| 20260905035507 | 73 | 216 | 0.0 | 2.0 | 0.00 | 0.03 | 0.03 | 95 | 1013.3 |
| 20260905035007 | 73 | 216 | 1.0 | 2.0 | 0.00 | 0.03 | 0.03 | 95 | 1013.4 |
| 20260905034507 | 73 | 216 | 0.0 | 0.0 | 0.00 | 0.03 | 0.03 | 95 | 1013.4 |
| 20260905034007 | 73 | 216 | 0.0 | 0.0 | 0.00 | 0.03 | 0.03 | 95 | 1013.4 |
| 20260905033508 | 73 | 216 | 0.0 | 0.0 | 0.00 | 0.03 | 0.03 | 95 | 1013.4 |
| 20260905033007 | 74 | 216 | 0.0 | 0.0 | 0.00 | 0.03 | 0.03 | 95 | 1013.4 |
| 20260905032507 | 74 | 216 | 0.0 | 0.0 | 0.00 | 0.03 | 0.03 | 95 | 1013.4 |
| 20260905032007 | 74 | 216 | 0.0 | 0.0 | 0.00 | 0.03 | 0.03 | 95 | 1013.5 |
| 20260905031507 | 74 | 216 | 0.0 | 0.0 | 0.00 | 0.03 | 0.03 | 95 | 1013.4 |
| 20260905031007 | 74 | 216 | 0.0 | 0.0 | 0.00 | 0.03 | 0.03 | 95 | 1013.4 |
| 20260905030507 | 74 | 216 | 0.0 | 0.0 | 0.00 | 0.03 | 0.03 | 95 | 1013.3 |
| 20260905030007 | 74 | 216 | 0.0 | 0.0 | 0.00 | 0.03 | 0.03 | 95 | 1013.2 |
| 20260905025507 | 74 | 216 | 0.0 | 0.0 | 0.00 | 0.03 | 0.03 | 95 | 1013.2 |
| 20260905025008 | 74 | 216 | 0.0 | 0.0 | 0.00 | 0.03 | 0.03 | 95 | 1013.2 |
| 20260905024507 | 74 | 216 | 0.0 | 0.0 | 0.00 | 0.03 | 0.03 | 95 | 1013.3 |
| 20260905024007 | 74 | 216 | 0.0 | 0.0 | 0.00 | 0.03 | 0.03 | 95 | 1013.3 |
| 20260905023508 | 74 | 216 | 0.0 | 3.0 | 0.00 | 0.03 | 0.03 | 95 | 1013.2 |
| 20260905023007 | 74 | 216 | 1.0 | 3.0 | 0.00 | 0.03 | 0.03 | 95 | 1013.3 |
| 20260905022506 | 74 | 260 | 0.0 | 0.0 | 0.00 | 0.03 | 0.03 | 95 | 1013.3 |
| 20260905022007 | 74 | 260 | 0.0 | 0.0 | 0.00 | 0.03 | 0.03 | 95 | 1013.5 |
| 20260905021508 | 74 | 260 | 0.0 | 0.0 | 0.00 | 0.03 | 0.03 | 95 | 1013.4 |
| 20260905021007 | 74 | 260 | 0.0 | 0.0 | 0.00 | 0.03 | 0.03 | 95 | 1013.4 |
| 20260905020507 | 74 | 260 | 0.0 | 0.0 | 0.00 | 0.03 | 0.03 | 95 | 1013.4 |
| 20260905020007 | 74 | 260 | 0.0 | 0.0 | 0.00 | 0.03 | 0.03 | 95 | 1013.5 |
| 20260905015506 | 74 | 260 | 0.0 | 0.0 | 0.00 | 0.03 | 0.03 | 95 | 1013.5 |
| 20260905015006 | 74 | 260 | 0.0 | 1.0 | 0.00 | 0.03 | 0.03 | 95 | 1013.3 |
| 20260905014507 | 74 | 260 | 0.0 | 1.0 | 0.00 | 0.03 | 0.03 | 95 | 1013.3 |
| 20260905014006 | 74 | 260 | 0.0 | 0.0 | 0.00 | 0.03 | 0.03 | 95 | 1013.3 |
| 20260905013507 | 74 | 260 | 0.0 | 2.0 | 0.00 | 0.03 | 0.03 | 95 | 1013.3 |
| 20260905013007 | 74 | 260 | 1.0 | 2.0 | 0.00 | 0.03 | 0.03 | 95 | 1013.2 |
| 20260905012507 | 74 | 260 | 2.0 | 2.0 | 0.00 | 0.03 | 0.03 | 95 | 1013.1 |
| 20260905012007 | 74 | 317 | 0.0 | 0.0 | 0.00 | 0.03 | 0.03 | 95 | 1013.0 |
| 20260905011506 | 74 | 317 | 0.0 | 0.0 | 0.00 | 0.03 | 0.03 | 95 | 1012.7 |
| 20260905011006 | 74 | 317 | 0.0 | 0.0 | 0.00 | 0.03 | 0.03 | 95 | 1012.7 |
| 20260905010507 | 74 | 317 | 0.0 | 0.0 | 0.00 | 0.03 | 0.03 | 95 | 1012.5 |
| 20260905010006 | 74 | 317 | 0.0 | 0.0 | 0.00 | 0.03 | 0.03 | 95 | 1012.4 |
| 20260905005507 | 74 | 317 | 0.0 | 0.0 | 0.00 | 0.03 | 0.03 | 94 | 1012.3 |
| 20260905005007 | 74 | 317 | 0.0 | 0.0 | 0.00 | 0.03 | 0.03 | 95 | 1012.3 |
| 20260905004507 | 75 | 317 | 0.0 | 0.0 | 0.00 | 0.03 | 0.03 | 95 | 1012.3 |
| 20260905004007 | 74 | 317 | 0.0 | 0.0 | 0.00 | 0.03 | 0.03 | 95 | 1011.9 |
| 20260905003507 | 75 | 318 | 0.0 | 0.0 | 0.00 | 0.03 | 0.03 | 95 | 1012.1 |
| 20260905003007 | 75 | 318 | 0.0 | 0.0 | 0.00 | 0.03 | 0.03 | 95 | 1012.5 |
| 20260905002508 | 74 | 318 | 0.0 | 0.0 | 0.00 | 0.03 | 0.03 | 94 | 1012.4 |
| 20260905002007 | 75 | 318 | 0.0 | 0.0 | 0.00 | 0.03 | 0.03 | 94 | 1012.2 |
| 20260905001508 | 75 | 318 | 0.0 | 0.0 | 0.01 | 0.03 | 0.03 | 94 | 1011.7 |
| 20260905001007 | 75 | 315 | 0.0 | 0.0 | 0.01 | 0.03 | 0.03 | 94 | 1011.5 |
| 20260905000507 | 75 | 315 | 0.0 | 0.0 | 0.01 | 0.03 | 0.03 | 94 | 1011.6 |
| 20260905000006 | 75 | 315 | 0.0 | 0.0 | 0.01 | 0.03 | 0.03 | 94 | 1011.4 |
| 20260904235507 | 75 | 191 | 0.0 | 1.0 | 0.02 | 0.03 | 0.03 | 94 | 1011.6 |
| 20260904235007 | 75 | 191 | 0.0 | 3.0 | 0.02 | 0.03 | 0.03 | 93 | 1011.5 |
| 20260904234506 | 75 | 191 | 2.0 | 3.0 | 0.02 | 0.03 | 0.03 | 93 | 1011.3 |
| 20260904234008 | 75 | 163 | 2.0 | 3.0 | 0.02 | 0.03 | 0.03 | 93 | 1011.2 |
| 20260904233507 | 75 | 213 | 2.0 | 3.0 | 0.02 | 0.03 | 0.03 | 93 | 1012.0 |
| 20260904233006 | 75 | 213 | 1.0 | 3.0 | 0.02 | 0.03 | 0.03 | 93 | 1012.5 |
| 20260904232506 | 75 | 213 | 0.0 | 6.0 | 0.02 | 0.03 | 0.03 | 93 | 1013.0 |
| 20260904232007 | 76 | 217 | 3.0 | 7.0 | 0.02 | 0.03 | 0.03 | 93 | 1012.9 |
| 20260904231507 | 76 | 219 | 4.0 | 7.0 | 0.01 | 0.02 | 0.02 | 93 | 1013.6 |
| 20260904231007 | 76 | 205 | 2.0 | 3.0 | 0.01 | 0.02 | 0.02 | 93 | 1014.0 |
| 20260904230506 | 76 | 205 | 2.0 | 3.0 | 0.02 | 0.02 | 0.02 | 92 | 1013.5 |
| 20260904230007 | 76 | 203 | 2.0 | 3.0 | 0.02 | 0.02 | 0.02 | 92 | 1013.3 |
| 20260904225507 | 76 | 140 | 1.0 | 3.0 | 0.01 | 0.01 | 0.01 | 90 | 1013.2 |
| 20260904225006 | 77 | 20 | 0.0 | 3.0 | 0.01 | 0.01 | 0.01 | 90 | 1013.0 |
| 20260904224507 | 77 | 5 | 2.0 | 3.0 | 0.01 | 0.01 | 0.01 | 91 | 1013.2 |
| 20260904224007 | 77 | 9 | 0.0 | 8.0 | 0.01 | 0.01 | 0.01 | 90 | 1013.3 |
| 20260904223507 | 78 | 3 | 2.0 | 8.0 | 0.01 | 0.01 | 0.01 | 90 | 1013.7 |
| 20260904223007 | 78 | 5 | 1.0 | 3.0 | 0.01 | 0.01 | 0.01 | 90 | 1013.7 |
| 20260904222506 | 78 | 153 | 0.0 | 2.0 | 0.01 | 0.01 | 0.01 | 89 | 1013.3 |
| 20260904222007 | 78 | 156 | 0.0 | 3.0 | 0.01 | 0.01 | 0.01 | 89 | 1013.2 |
| 20260904221507 | 78 | 157 | 0.0 | 3.0 | 0.01 | 0.01 | 0.01 | 87 | 1013.8 |
| 20260904221007 | 79 | 157 | 2.0 | 5.0 | 0.01 | 0.01 | 0.01 | 86 | 1013.9 |
| 20260904220507 | 79 | 157 | 2.0 | 13.0 | 0.00 | 0.00 | 0.00 | 84 | 1013.8 |
| 20260904220006 | 80 | 337 | 2.0 | 13.0 | 0.00 | 0.00 | 0.00 | 81 | 1013.8 |
| 20260904215507 | 80 | 2 | 3.0 | 13.0 | 0.00 | 0.00 | 0.00 | 78 | 1013.6 |
| 20260904215006 | 81 | 19 | 6.0 | 15.0 | 0.00 | 0.00 | 0.00 | 76 | 1013.2 |
| 20260904214506 | 81 | 43 | 5.0 | 17.0 | 0.00 | 0.00 | 0.00 | 74 | 1012.8 |
| 20260904214006 | 82 | 33 | 6.0 | 20.0 | 0.00 | 0.00 | 0.00 | 71 | 1012.4 |
| 20260904213507 | 84 | 20 | 7.0 | 28.0 | 0.00 | 0.00 | 0.00 | 68 | 1012.4 |
| 20260904213007 | 86 | 352 | 14.0 | 28.0 | 0.00 | 0.00 | 0.00 | 64 | 1012.4 |
| 20260904212506 | 90 | 20 | 10.0 | 26.0 | 0.00 | 0.00 | 0.00 | 65 | 1012.3 |
| 20260904212007 | 93 | 311 | 6.0 | 20.0 | 0.00 | 0.00 | 0.00 | 63 | 1012.3 |
| 20260904211506 | 94 | 353 | 1.0 | 6.0 | 0.00 | 0.00 | 0.00 | 62 | 1011.7 |
| 20260904211006 | 94 | 218 | 0.0 | 0.0 | 0.00 | 0.00 | 0.00 | 61 | 1011.3 |
| 20260904210507 | 94 | 218 | 0.0 | 0.0 | 0.00 | 0.00 | 0.00 | 60 | 1011.1 |
| 20260904210006 | 95 | 218 | 0.0 | 0.0 | 0.00 | 0.00 | 0.00 | 59 | 1011.3 |
| 20260904205506 | 95 | 218 | 0.0 | 1.0 | 0.00 | 0.00 | 0.00 | 60 | 1011.4 |
| 20260904205008 | 95 | 218 | 0.0 | 3.0 | 0.00 | 0.00 | 0.00 | 58 | 1011.3 |
| 20260904204506 | 96 | 218 | 0.0 | 3.0 | 0.00 | 0.00 | 0.00 | 58 | 1011.2 |
| 20260904204006 | 96 | 218 | 1.0 | 3.0 | 0.00 | 0.00 | 0.00 | 58 | 1011.2 |
| 20260904203506 | 96 | 218 | 1.0 | 3.0 | 0.00 | 0.00 | 0.00 | 57 | 1011.1 |
| 20260904203006 | 96 | 218 | 0.0 | 3.0 | 0.00 | 0.00 | 0.00 | 59 | 1011.1 |
| 20260904202506 | 95 | 218 | 0.0 | 2.0 | 0.00 | 0.00 | 0.00 | 60 | 1011.1 |
| 20260904202009 | 94 | 218 | 1.0 | 2.0 | 0.00 | 0.00 | 0.00 | 61 | 1011.0 |
| 20260904201507 | 95 | 218 | 1.0 | 2.0 | 0.00 | 0.00 | 0.00 | 61 | 1010.9 |
| 20260904201007 | 95 | 218 | 0.0 | 2.0 | 0.00 | 0.00 | 0.00 | 62 | 1011.1 |
| 20260904200506 | 95 | 218 | 0.0 | 2.0 | 0.00 | 0.00 | 0.00 | 61 | 1011.3 |
| 20260904200006 | 96 | 218 | 0.0 | 2.0 | 0.00 | 0.00 | 0.00 | 62 | 1011.4 |
| 20260904195506 | 96 | 218 | 1.0 | 2.0 | 0.00 | 0.00 | 0.00 | 59 | 1011.4 |
| 20260904195006 | 96 | 218 | 0.0 | 3.0 | 0.00 | 0.00 | 0.00 | 58 | 1011.6 |
| 20260904194506 | 97 | 218 | 0.0 | 3.0 | 0.00 | 0.00 | 0.00 | 58 | 1011.7 |
| 20260904194006 | 98 | 218 | 2.0 | 3.0 | 0.00 | 0.00 | 0.00 | 55 | 1011.7 |
| 20260904193506 | 99 | 222 | 2.0 | 3.0 | 0.00 | 0.00 | 0.00 | 54 | 1011.7 |
| 20260904193006 | 100 | 238 | 0.0 | 3.0 | 0.00 | 0.00 | 0.00 | 54 | 1011.7 |
| 20260904192507 | 100 | 219 | 2.0 | 3.0 | 0.00 | 0.00 | 0.00 | 54 | 1011.8 |
| 20260904192007 | 99 | 231 | 0.0 | 3.0 | 0.00 | 0.00 | 0.00 | 56 | 1011.9 |
| 20260904191506 | 98 | 232 | 1.0 | 3.0 | 0.00 | 0.00 | 0.00 | 55 | 1011.9 |
| 20260904191006 | 98 | 227 | 2.0 | 3.0 | 0.00 | 0.00 | 0.00 | 56 | 1012.0 |
| 20260904190506 | 99 | 221 | 2.0 | 5.0 | 0.00 | 0.00 | 0.00 | 54 | 1012.0 |
| 20260904190006 | 100 | 125 | 0.0 | 5.0 | 0.00 | 0.00 | 0.00 | 56 | 1012.1 |
| 20260904185506 | 100 | 128 | 1.0 | 5.0 | 0.00 | 0.00 | 0.00 | 56 | 1012.3 |
| 20260904185007 | 100 | 52 | 1.0 | 6.0 | 0.00 | 0.00 | 0.00 | 54 | 1012.4 |
| 20260904184506 | 100 | 9 | 2.0 | 6.0 | 0.00 | 0.00 | 0.00 | 55 | 1012.6 |